Time;durP1;ratioP1;P1;durP2;ratioP2;P2;SDS_P1;SDS_P2;PMS_P1;PMS_P2;Temp;Humidity;BMP_temperature;BMP_pressure;BME280_temperature;BME280_humidity;BME280_pressure;Samples;Min_cycle;Max_cycle;Signal;HPM_P1;HPM_P2
2022/05/15 00:02:17;;;;;;;0.70;0.70;;;15.60;99.90;;;;;;5050376;28;20206;-63
2022/05/15 00:04:44;;;;;;;0.95;0.95;;;15.50;99.90;;;;;;5050057;28;20347;-64
2022/05/15 00:07:11;;;;;;;0.70;0.70;;;15.50;99.90;;;;;;5050443;28;20303;-62
2022/05/15 00:09:38;;;;;;;0.73;0.73;;;15.40;99.90;;;;;;5050824;28;20204;-62
2022/05/15 00:12:06;;;;;;;0.77;0.77;;;15.40;99.90;;;;;;5050128;28;20306;-62
2022/05/15 00:14:35;;;;;;;0.73;0.73;;;15.50;99.90;;;;;;5050703;28;20315;-62
2022/05/15 00:17:02;;;;;;;0.77;0.77;;;15.50;99.90;;;;;;5047631;28;20832;-62
2022/05/15 00:19:29;;;;;;;0.70;0.70;;;15.50;99.90;;;;;;5050575;28;20224;-62
2022/05/15 00:21:56;;;;;;;0.60;0.60;;;15.50;99.90;;;;;;5050623;28;20286;-64
2022/05/15 00:24:23;;;;;;;0.57;0.57;;;15.50;99.90;;;;;;5050735;28;20310;-62
2022/05/15 00:26:50;;;;;;;0.68;0.68;;;15.50;99.90;;;;;;5051020;28;20210;-62
2022/05/15 00:29:17;;;;;;;0.70;0.70;;;15.40;99.90;;;;;;5050637;28;20294;-62
2022/05/15 00:31:45;;;;;;;0.52;0.52;;;15.40;99.90;;;;;;5050708;28;20267;-62
2022/05/15 00:34:12;;;;;;;0.60;0.60;;;15.40;99.90;;;;;;5050570;28;20236;-62
2022/05/15 00:36:39;;;;;;;1.65;0.68;;;15.30;99.90;;;;;;5050924;28;20210;-63
2022/05/15 00:39:07;;;;;;;0.77;0.77;;;15.30;99.90;;;;;;5050007;28;20242;-64
2022/05/15 00:41:34;;;;;;;0.80;0.80;;;15.20;99.90;;;;;;5050117;28;20212;-62
2022/05/15 00:44:01;;;;;;;0.75;0.75;;;15.20;99.90;;;;;;5050911;28;20224;-63
2022/05/15 00:46:31;;;;;;;0.50;0.50;;;15.20;99.90;;;;;;5050829;28;20299;-63
2022/05/15 00:49:01;;;;;;;0.70;0.70;;;15.10;99.90;;;;;;5053707;28;20204;-63
2022/05/15 00:51:32;;;;;;;0.55;0.55;;;15.10;99.90;;;;;;5054086;28;20188;-63
2022/05/15 00:54:06;;;;;;;0.80;0.80;;;15.10;99.90;;;;;;5054500;28;20313;-64
2022/05/15 00:56:35;;;;;;;0.70;0.70;;;15.10;99.90;;;;;;5055237;28;20564;-63
2022/05/15 00:59:08;;;;;;;0.60;0.60;;;15.10;99.90;;;;;;5054310;28;20255;-63
2022/05/15 01:01:35;;;;;;;1.13;1.02;;;15.20;99.90;;;;;;5054176;28;20696;-64
2022/05/15 01:04:04;;;;;;;0.70;0.70;;;15.10;99.90;;;;;;5054943;28;20327;-63
2022/05/15 01:06:35;;;;;;;0.80;0.80;;;15.10;99.90;;;;;;5051278;28;20266;-63
2022/05/15 01:09:03;;;;;;;0.68;0.68;;;15.10;99.90;;;;;;5055202;28;20243;-64
2022/05/15 01:11:31;;;;;;;0.63;0.60;;;15.10;99.90;;;;;;5059721;28;20295;-64
2022/05/15 01:13:58;;;;;;;0.70;0.70;;;15.20;99.90;;;;;;5054511;28;20234;-63
2022/05/15 01:16:26;;;;;;;0.68;0.60;;;15.20;99.90;;;;;;5054002;28;20287;-62
2022/05/15 01:18:56;;;;;;;0.82;0.82;;;15.30;99.90;;;;;;5054672;28;20228;-62
2022/05/15 01:21:29;;;;;;;0.50;0.50;;;15.20;99.90;;;;;;5053483;28;20200;-62
2022/05/15 01:23:56;;;;;;;0.65;0.65;;;15.30;99.90;;;;;;5054325;28;20231;-63
2022/05/15 01:26:24;;;;;;;0.55;0.55;;;15.20;99.90;;;;;;5054888;28;20271;-64
2022/05/15 01:28:51;;;;;;;0.70;0.70;;;15.20;99.90;;;;;;5054171;28;20663;-64
2022/05/15 01:31:18;;;;;;;0.57;0.57;;;15.10;99.90;;;;;;5052519;28;20287;-65
2022/05/15 01:33:48;;;;;;;0.80;0.80;;;15.10;99.90;;;;;;5039831;28;20246;-61
2022/05/15 01:36:15;;;;;;;0.70;0.70;;;15.10;99.90;;;;;;5054101;28;20207;-63
2022/05/15 01:38:43;;;;;;;0.50;0.50;;;15.00;99.90;;;;;;5053783;28;20310;-63
2022/05/15 01:41:12;;;;;;;0.80;0.80;;;15.00;99.90;;;;;;5052848;28;20646;-64
2022/05/15 01:43:40;;;;;;;0.60;0.60;;;15.00;99.90;;;;;;5053812;28;20617;-62
2022/05/15 01:46:08;;;;;;;0.98;0.98;;;15.00;99.90;;;;;;5054361;28;20230;-61
2022/05/15 01:48:35;;;;;;;0.80;0.80;;;14.90;99.90;;;;;;5053684;28;20227;-62
2022/05/15 01:51:02;;;;;;;1.00;1.00;;;14.90;99.90;;;;;;5052973;28;20302;-62
2022/05/15 01:53:29;;;;;;;0.70;0.70;;;14.90;99.90;;;;;;5052436;28;20228;-63
2022/05/15 01:55:58;;;;;;;0.70;0.70;;;14.90;99.90;;;;;;5053558;28;20758;-62
2022/05/15 01:58:25;;;;;;;0.65;0.65;;;14.80;99.90;;;;;;5052657;28;20310;-62
2022/05/15 02:00:51;;;;;;;1.05;0.88;;;14.80;99.90;;;;;;5052364;28;20209;-63
2022/05/15 02:03:19;;;;;;;0.80;0.80;;;14.80;99.90;;;;;;5052964;28;20262;-62
2022/05/15 02:05:46;;;;;;;0.50;0.50;;;14.70;99.90;;;;;;5053518;28;20219;-63
2022/05/15 02:08:13;;;;;;;0.80;0.80;;;14.80;99.90;;;;;;5053535;28;20203;-64
2022/05/15 02:10:40;;;;;;;0.70;0.70;;;14.70;99.90;;;;;;5052539;28;20214;-63
2022/05/15 02:13:08;;;;;;;0.80;0.80;;;14.70;99.90;;;;;;5052987;28;20210;-63
2022/05/15 02:15:35;;;;;;;0.88;0.88;;;14.70;99.90;;;;;;5052258;28;20221;-63
2022/05/15 02:18:04;;;;;;;0.60;0.60;;;14.70;99.90;;;;;;5053042;28;20312;-65
2022/05/15 02:20:31;;;;;;;0.70;0.70;;;14.70;99.90;;;;;;5052458;28;20211;-63
2022/05/15 02:22:57;;;;;;;0.60;0.60;;;14.60;99.90;;;;;;5052966;28;20210;-63
2022/05/15 02:25:26;;;;;;;0.80;0.80;;;14.60;99.90;;;;;;5051742;28;20373;-63
2022/05/15 02:27:53;;;;;;;0.80;0.80;;;14.60;99.90;;;;;;5052758;28;20203;-63
2022/05/15 02:30:23;;;;;;;0.88;0.88;;;14.60;99.90;;;;;;5052301;28;20203;-63
2022/05/15 02:32:51;;;;;;;0.68;0.68;;;14.50;99.90;;;;;;5052908;28;20204;-63
2022/05/15 02:35:18;;;;;;;0.70;0.70;;;14.50;99.90;;;;;;5051231;28;20792;-63
2022/05/15 02:37:47;;;;;;;0.60;0.60;;;14.40;99.90;;;;;;5052687;28;20299;-62
2022/05/15 02:40:16;;;;;;;0.75;0.75;;;14.40;99.90;;;;;;5052336;28;20339;-63
2022/05/15 02:42:44;;;;;;;0.73;0.73;;;14.30;99.90;;;;;;5052380;28;20204;-61
2022/05/15 02:45:12;;;;;;;1.00;1.00;;;14.20;99.90;;;;;;5052327;28;20789;-62
2022/05/15 02:47:40;;;;;;;0.70;0.70;;;14.20;99.90;;;;;;5052872;28;20247;-62
2022/05/15 02:52:53;;;;;;;0.57;0.57;;;14.20;99.90;;;;;;5058912;28;20226;-62
2022/05/15 02:55:21;;;;;;;0.60;0.60;;;14.20;99.90;;;;;;5060057;28;20598;-63
2022/05/15 02:57:48;;;;;;;0.98;0.80;;;14.20;99.90;;;;;;5060904;28;20296;-62
2022/05/15 03:00:16;;;;;;;0.77;0.77;;;14.10;99.90;;;;;;5059565;28;20220;-62
2022/05/15 03:02:45;;;;;;;1.73;0.70;;;14.10;99.90;;;;;;5054637;28;20572;-63
2022/05/15 03:05:13;;;;;;;0.70;0.70;;;14.20;99.90;;;;;;5052031;28;20972;-65
2022/05/15 03:07:42;;;;;;;0.77;0.77;;;14.30;99.90;;;;;;5051001;28;20653;-65
2022/05/15 03:10:12;;;;;;;1.10;1.10;;;14.20;99.90;;;;;;5037655;28;20664;-64
2022/05/15 03:12:39;;;;;;;0.80;0.80;;;14.10;99.90;;;;;;5036230;28;20715;-62
2022/05/15 03:15:07;;;;;;;0.60;0.60;;;14.10;99.90;;;;;;5038957;28;20354;-62
2022/05/15 03:17:35;;;;;;;0.60;0.60;;;14.00;99.90;;;;;;5043510;28;20204;-62
2022/05/15 03:20:04;;;;;;;0.60;0.60;;;14.00;99.90;;;;;;5048520;28;20223;-65
2022/05/15 03:22:32;;;;;;;0.80;0.80;;;14.10;99.90;;;;;;5043222;28;20291;-63
2022/05/15 03:24:59;;;;;;;0.50;0.50;;;14.00;99.90;;;;;;5046944;28;20246;-63
2022/05/15 03:27:25;;;;;;;0.73;0.70;;;14.00;99.90;;;;;;5050736;28;20291;-66
2022/05/15 03:29:52;;;;;;;0.93;0.93;;;14.00;99.90;;;;;;5051066;28;20227;-64
2022/05/15 03:32:19;;;;;;;0.80;0.80;;;13.90;99.90;;;;;;5049570;28;20289;-61
2022/05/15 03:34:46;;;;;;;0.80;0.70;;;13.90;99.90;;;;;;5042965;28;20227;-65
2022/05/15 03:37:14;;;;;;;0.75;0.75;;;13.80;99.90;;;;;;5046279;28;20211;-62
2022/05/15 03:39:41;;;;;;;0.80;0.80;;;13.80;99.90;;;;;;5044996;28;20216;-61
2022/05/15 03:42:08;;;;;;;0.70;0.70;;;13.80;99.90;;;;;;5046671;28;20208;-63
2022/05/15 03:44:37;;;;;;;0.77;0.77;;;13.70;99.90;;;;;;5050769;28;20236;-62
2022/05/15 03:47:04;;;;;;;0.70;0.70;;;13.70;99.90;;;;;;5051083;28;20204;-64
2022/05/15 03:49:31;;;;;;;0.70;0.70;;;13.60;99.90;;;;;;5051290;28;20287;-62
2022/05/15 03:51:58;;;;;;;0.73;0.73;;;13.60;99.90;;;;;;5033349;28;20235;-63
2022/05/15 03:54:26;;;;;;;0.70;0.70;;;13.50;99.90;;;;;;5050788;28;20662;-63
2022/05/15 03:56:53;;;;;;;0.57;0.57;;;13.50;99.90;;;;;;5051046;28;20206;-62
2022/05/15 03:59:23;;;;;;;0.70;0.70;;;13.50;99.90;;;;;;5051034;28;20262;-63
2022/05/15 04:01:50;;;;;;;0.70;0.70;;;13.50;99.90;;;;;;5049460;28;20776;-63
2022/05/15 04:04:17;;;;;;;1.10;0.68;;;13.50;99.90;;;;;;5050634;28;20230;-64
2022/05/15 04:06:44;;;;;;;0.68;0.68;;;13.50;99.90;;;;;;5051267;28;20204;-64
2022/05/15 04:09:12;;;;;;;0.68;0.68;;;13.50;99.90;;;;;;5050936;28;20224;-62
2022/05/15 04:11:40;;;;;;;0.70;0.70;;;13.50;99.90;;;;;;5049800;28;20229;-65
2022/05/15 04:14:07;;;;;;;0.97;0.77;;;13.50;99.90;;;;;;5050320;28;20230;-62
2022/05/15 04:16:35;;;;;;;0.60;0.60;;;13.50;99.90;;;;;;5051131;28;20204;-63
2022/05/15 04:19:02;;;;;;;0.60;0.60;;;13.60;99.90;;;;;;5050728;28;20273;-63
2022/05/15 04:21:30;;;;;;;0.67;0.67;;;13.70;99.90;;;;;;5050175;28;20219;-62
2022/05/15 04:23:57;;;;;;;0.70;0.70;;;13.70;99.90;;;;;;5050089;28;20285;-63
2022/05/15 04:26:24;;;;;;;0.80;0.80;;;13.70;99.90;;;;;;5051036;28;20291;-63
2022/05/15 04:28:52;;;;;;;0.80;0.80;;;13.70;99.90;;;;;;5052430;28;20290;-62
2022/05/15 04:31:19;;;;;;;0.60;0.60;;;13.80;99.90;;;;;;5050789;28;20210;-62
2022/05/15 04:33:46;;;;;;;0.60;0.57;;;13.90;99.90;;;;;;5049912;28;20306;-63
2022/05/15 04:36:12;;;;;;;0.80;0.80;;;13.90;99.90;;;;;;5050689;28;20306;-62
2022/05/15 04:38:39;;;;;;;0.50;0.50;;;14.00;99.90;;;;;;5050156;28;20219;-63
2022/05/15 04:41:06;;;;;;;0.65;0.65;;;14.00;99.90;;;;;;5050162;28;20300;-63
2022/05/15 04:43:33;;;;;;;0.60;0.60;;;14.10;99.90;;;;;;5049998;28;20228;-62
2022/05/15 04:46:03;;;;;;;0.50;0.50;;;14.10;99.90;;;;;;5050707;28;20298;-62
2022/05/15 04:48:30;;;;;;;0.63;0.63;;;14.20;99.90;;;;;;5050514;28;20212;-64
2022/05/15 04:50:57;;;;;;;0.65;0.65;;;14.20;99.90;;;;;;5050141;28;20196;-64
2022/05/15 04:53:23;;;;;;;0.50;0.50;;;14.30;99.90;;;;;;5050719;28;20204;-63
2022/05/15 04:55:50;;;;;;;0.60;0.60;;;14.30;99.90;;;;;;5049707;28;20595;-62
2022/05/15 04:58:17;;;;;;;0.57;0.57;;;14.40;99.90;;;;;;5050754;28;20283;-63
2022/05/15 05:00:44;;;;;;;1.05;0.70;;;14.50;99.90;;;;;;5049623;28;20318;-63
2022/05/15 05:03:12;;;;;;;0.60;0.60;;;14.50;99.90;;;;;;5049885;28;20204;-63
2022/05/15 05:05:39;;;;;;;0.60;0.60;;;14.50;99.90;;;;;;5050001;28;20311;-63
2022/05/15 05:08:09;;;;;;;0.70;0.70;;;14.60;99.90;;;;;;5050529;28;20204;-64
2022/05/15 05:10:36;;;;;;;0.50;0.50;;;14.70;99.90;;;;;;5049796;28;20200;-65
2022/05/15 05:13:03;;;;;;;0.50;0.50;;;14.70;99.90;;;;;;5050960;28;20220;-62
2022/05/15 05:15:30;;;;;;;0.87;0.83;;;14.90;99.90;;;;;;5049743;28;20227;-65
2022/05/15 05:17:57;;;;;;;0.50;0.50;;;15.10;99.90;;;;;;5050408;28;20246;-64
2022/05/15 05:20:26;;;;;;;0.80;0.80;;;15.20;99.90;;;;;;5049652;28;20219;-65
2022/05/15 05:22:53;;;;;;;0.68;0.68;;;15.40;99.90;;;;;;5050586;28;20287;-65
2022/05/15 05:25:20;;;;;;;0.50;0.50;;;15.50;99.90;;;;;;5049331;28;20227;-62
2022/05/15 05:27:47;;;;;;;0.52;0.52;;;15.60;99.90;;;;;;5049423;28;20253;-63
2022/05/15 05:30:18;;;;;;;0.63;0.63;;;15.80;99.90;;;;;;5049924;28;20671;-63
2022/05/15 05:32:45;;;;;;;0.55;0.55;;;15.90;99.90;;;;;;5050443;28;20295;-66
2022/05/15 05:35:13;;;;;;;0.75;0.75;;;16.10;99.90;;;;;;5053127;28;20274;-65
2022/05/15 05:37:42;;;;;;;1.30;0.80;;;16.30;99.90;;;;;;5052805;28;20284;-64
2022/05/15 05:40:10;;;;;;;0.70;0.70;;;16.50;99.90;;;;;;5052813;28;20224;-64
2022/05/15 05:42:37;;;;;;;0.60;0.60;;;16.70;99.90;;;;;;5053404;28;20208;-64
2022/05/15 05:47:32;;;;;;;0.80;0.80;;;17.20;99.90;;;;;;5033662;28;20232;-69
2022/05/15 05:50:01;;;;;;;0.88;0.88;;;17.40;99.90;;;;;;5048151;28;20235;-67
2022/05/15 05:52:28;;;;;;;0.80;0.80;;;17.30;99.90;;;;;;5048219;28;20193;-69
2022/05/15 05:54:56;;;;;;;1.10;1.00;;;17.30;99.90;;;;;;5046756;28;20292;-69
2022/05/15 05:57:23;;;;;;;0.90;0.90;;;17.30;99.90;;;;;;5039737;28;20311;-68
2022/05/15 05:59:50;;;;;;;0.90;0.90;;;17.30;99.90;;;;;;5043948;28;20251;-68
2022/05/15 06:02:16;;;;;;;0.98;0.82;;;17.30;99.90;;;;;;5041672;28;20272;-69
2022/05/15 06:04:44;;;;;;;1.10;1.00;;;17.30;99.90;;;;;;5041902;28;20236;-70
2022/05/15 06:07:13;;;;;;;0.77;0.77;;;17.50;99.90;;;;;;5041183;28;20229;-69
2022/05/15 06:09:43;;;;;;;0.80;0.80;;;17.50;99.90;;;;;;5040369;28;20240;-69
2022/05/15 06:12:13;;;;;;;1.00;1.00;;;17.50;99.90;;;;;;5037425;28;20231;-69
2022/05/15 06:14:40;;;;;;;0.80;0.80;;;17.70;99.90;;;;;;5036859;28;20243;-69
2022/05/15 06:17:07;;;;;;;1.02;0.88;;;17.80;99.90;;;;;;5035704;28;20255;-70
2022/05/15 06:19:35;;;;;;;0.80;0.80;;;17.70;99.90;;;;;;5035460;28;20311;-69
2022/05/15 06:22:01;;;;;;;0.90;0.90;;;17.70;99.90;;;;;;5033846;28;20232;-68
2022/05/15 06:24:29;;;;;;;2.40;1.20;;;17.90;99.90;;;;;;5034519;28;20287;-68
2022/05/15 06:26:58;;;;;;;0.90;0.90;;;17.90;99.90;;;;;;5034553;28;20312;-69
2022/05/15 06:29:27;;;;;;;2.50;1.38;;;17.70;99.90;;;;;;5034274;28;20708;-69
2022/05/15 06:31:54;;;;;;;1.00;1.00;;;17.70;99.90;;;;;;5031809;28;20203;-68
2022/05/15 06:34:21;;;;;;;1.00;1.00;;;17.70;99.90;;;;;;5032583;28;20204;-67
2022/05/15 06:36:48;;;;;;;1.20;1.20;;;17.60;99.90;;;;;;5032755;28;20225;-68
2022/05/15 06:39:15;;;;;;;1.10;1.10;;;17.70;99.90;;;;;;5039003;28;20255;-68
2022/05/15 06:41:42;;;;;;;1.00;1.00;;;17.80;99.90;;;;;;5033558;28;20204;-68
2022/05/15 06:44:09;;;;;;;1.10;1.10;;;18.00;99.90;;;;;;5032520;28;20251;-67
2022/05/15 06:46:37;;;;;;;1.05;1.00;;;18.10;99.90;;;;;;5032670;28;20806;-68
2022/05/15 06:49:04;;;;;;;0.90;0.90;;;18.20;99.90;;;;;;5033136;28;20289;-71
2022/05/15 06:51:31;;;;;;;1.00;1.00;;;18.30;99.90;;;;;;5031737;28;20266;-67
2022/05/15 06:53:57;;;;;;;1.00;1.00;;;18.40;99.90;;;;;;5033266;28;20654;-68
2022/05/15 06:59:09;;;;;;;0.90;0.90;;;18.60;99.90;;;;;;5042566;28;20234;-67
2022/05/15 07:01:37;;;;;;;1.00;1.00;;;18.80;99.90;;;;;;5033921;28;20304;-69
2022/05/15 07:04:05;;;;;;;1.08;1.00;;;19.00;99.90;;;;;;5032910;28;20651;-69
2022/05/15 07:06:32;;;;;;;0.90;0.90;;;19.00;99.90;;;;;;5033553;28;20287;-68
2022/05/15 07:08:58;;;;;;;1.10;1.10;;;18.90;99.90;;;;;;5033932;28;20276;-69
2022/05/15 07:11:25;;;;;;;0.88;0.88;;;18.90;99.90;;;;;;5031993;28;20287;-69
2022/05/15 07:13:52;;;;;;;1.00;1.00;;;19.00;99.90;;;;;;5031656;28;20351;-68
2022/05/15 07:16:19;;;;;;;1.10;1.10;;;19.20;99.90;;;;;;5034912;28;20283;-69
2022/05/15 07:18:48;;;;;;;1.35;1.20;;;19.40;99.90;;;;;;5033443;28;20219;-68
2022/05/15 07:21:14;;;;;;;1.30;1.30;;;19.40;99.90;;;;;;5031099;28;20255;-68
2022/05/15 07:23:42;;;;;;;1.50;1.40;;;19.40;99.90;;;;;;5031598;28;20288;-68
2022/05/15 07:26:09;;;;;;;1.10;1.10;;;19.40;99.90;;;;;;5032714;28;20896;-67
2022/05/15 07:28:36;;;;;;;1.20;1.20;;;19.40;99.90;;;;;;5032777;28;20670;-69
2022/05/15 07:31:03;;;;;;;1.10;1.10;;;19.50;99.90;;;;;;5031457;28;20671;-69
2022/05/15 07:33:30;;;;;;;1.30;1.10;;;19.60;99.90;;;;;;5037574;28;20231;-69
2022/05/15 07:35:58;;;;;;;1.00;1.00;;;19.70;99.90;;;;;;5037408;28;20307;-69
2022/05/15 07:38:25;;;;;;;1.20;1.05;;;19.80;99.90;;;;;;5031659;28;20215;-69
2022/05/15 07:40:53;;;;;;;1.00;1.00;;;19.90;99.90;;;;;;5030904;28;20311;-68
2022/05/15 07:43:20;;;;;;;1.27;1.20;;;20.00;99.90;;;;;;5031619;28;20254;-69
2022/05/15 07:45:47;;;;;;;0.98;0.98;;;20.10;99.90;;;;;;5033191;28;20240;-67
2022/05/15 07:48:14;;;;;;;0.90;0.90;;;20.10;99.90;;;;;;5037944;28;20264;-68
2022/05/15 07:50:41;;;;;;;1.95;1.10;;;20.20;99.90;;;;;;5039306;28;20228;-68
2022/05/15 07:53:09;;;;;;;1.30;1.20;;;20.30;99.90;;;;;;5031915;28;20208;-68
2022/05/15 07:55:36;;;;;;;1.00;1.00;;;20.50;99.90;;;;;;5030129;28;20224;-69
2022/05/15 07:58:04;;;;;;;0.90;0.90;;;20.60;99.90;;;;;;5031549;28;20550;-67
2022/05/15 08:00:31;;;;;;;0.85;0.85;;;20.60;99.90;;;;;;5030657;28;20753;-68
2022/05/15 08:03:02;;;;;;;1.00;1.00;;;20.70;99.90;;;;;;5031058;28;20360;-68
2022/05/15 08:08:15;;;;;;;0.90;0.90;;;20.90;99.90;;;;;;5032918;28;20291;-69
2022/05/15 08:10:44;;;;;;;1.35;1.10;;;21.00;99.90;;;;;;5030988;28;20742;-69
2022/05/15 08:13:13;;;;;;;0.73;0.73;;;21.00;99.90;;;;;;5031647;28;20204;-68
2022/05/15 08:15:41;;;;;;;1.08;1.00;;;21.10;99.90;;;;;;5030301;28;20216;-69
2022/05/15 08:23:44;;;;;;;0.90;0.90;;;21.30;99.90;;;;;;5030829;28;20258;-68
2022/05/15 08:26:12;;;;;;;1.13;1.08;;;21.50;99.90;;;;;;5030340;28;20228;-69
2022/05/15 08:28:39;;;;;;;0.73;0.73;;;21.60;99.90;;;;;;5030404;28;20209;-68
2022/05/15 08:31:08;;;;;;;1.27;1.27;;;21.70;99.90;;;;;;5030618;28;20239;-67
2022/05/15 08:33:35;;;;;;;0.93;0.90;;;21.80;99.90;;;;;;5030473;28;20205;-68
2022/05/15 08:36:02;;;;;;;1.13;1.13;;;21.80;99.90;;;;;;5030499;28;20220;-69
2022/05/15 08:38:29;;;;;;;0.90;0.90;;;21.80;99.90;;;;;;5030015;28;20292;-68
2022/05/15 08:41:03;;;;;;;0.90;0.90;;;21.80;99.90;;;;;;5030137;28;20790;-68
2022/05/15 08:43:43;;;;;;;0.90;0.90;;;22.00;99.90;;;;;;5033154;28;20289;-69
2022/05/15 08:46:27;;;;;;;0.90;0.90;;;21.90;99.90;;;;;;5030550;28;20238;-68
2022/05/15 08:49:02;;;;;;;1.10;1.10;;;22.20;99.90;;;;;;5034484;28;20200;-70
2022/05/15 08:51:31;;;;;;;1.10;1.10;;;22.30;99.90;;;;;;5038276;28;20299;-68
2022/05/15 08:54:00;;;;;;;0.85;0.85;;;22.40;99.90;;;;;;5030979;28;20205;-69
2022/05/15 08:56:30;;;;;;;1.00;1.00;;;22.60;99.90;;;;;;5033690;28;20338;-69
2022/05/15 08:59:01;;;;;;;1.10;1.10;;;22.80;99.90;;;;;;5034000;28;20231;-68
2022/05/15 09:01:28;;;;;;;1.67;1.05;;;22.70;99.90;;;;;;5029500;28;20785;-69
2022/05/15 09:03:57;;;;;;;1.00;1.00;;;22.60;99.90;;;;;;5029837;28;21055;-68
2022/05/15 09:06:37;;;;;;;1.00;1.00;;;22.70;99.90;;;;;;5028732;28;20244;-68
2022/05/15 09:09:15;;;;;;;0.90;0.90;;;22.70;99.90;;;;;;5032519;28;20209;-69
2022/05/15 09:11:50;;;;;;;0.88;0.88;;;22.90;99.90;;;;;;5031815;28;20292;-69
2022/05/15 09:14:36;;;;;;;1.40;1.20;;;23.10;99.90;;;;;;5032142;28;20207;-68
2022/05/15 09:17:17;;;;;;;1.05;1.00;;;23.20;99.90;;;;;;5034566;28;20333;-69
2022/05/15 09:19:44;;;;;;;0.90;0.90;;;23.30;99.90;;;;;;5034969;28;20279;-69
2022/05/15 09:22:14;;;;;;;1.10;1.00;;;23.30;99.90;;;;;;5033155;28;20232;-68
2022/05/15 09:24:45;;;;;;;0.80;0.80;;;23.50;99.90;;;;;;5034249;28;20300;-68
2022/05/15 09:27:18;;;;;;;0.88;0.88;;;23.60;99.90;;;;;;5039997;28;20253;-68
2022/05/15 09:29:53;;;;;;;1.08;1.08;;;23.80;99.90;;;;;;5042139;28;20283;-69
2022/05/15 09:32:28;;;;;;;1.00;1.00;;;23.90;99.90;;;;;;5035736;28;20208;-68
2022/05/15 09:34:57;;;;;;;0.93;0.93;;;24.00;99.90;;;;;;5034630;28;20212;-69
2022/05/15 09:40:22;;;;;;;0.95;0.95;;;24.30;99.90;;;;;;5032462;28;20649;-68
2022/05/15 09:45:53;;;;;;;0.90;0.90;;;24.40;99.90;;;;;;5016575;28;20716;-68
2022/05/15 09:48:23;;;;;;;0.90;0.90;;;24.50;99.90;;;;;;5030295;28;20588;-66
2022/05/15 09:50:59;;;;;;;0.90;0.90;;;24.60;99.90;;;;;;5032783;28;20554;-68
2022/05/15 09:53:33;;;;;;;0.93;0.93;;;24.70;99.90;;;;;;5031415;28;20204;-65
2022/05/15 09:56:02;;;;;;;0.80;0.80;;;24.70;99.90;;;;;;5032222;28;20231;-69
2022/05/15 09:58:40;;;;;;;0.80;0.80;;;24.70;99.90;;;;;;5032393;28;20196;-68
2022/05/15 10:01:14;;;;;;;1.00;1.00;;;24.90;99.90;;;;;;5033445;28;20204;-68
2022/05/15 10:03:41;;;;;;;0.80;0.80;;;25.00;99.90;;;;;;5032500;28;20622;-69
2022/05/15 10:06:09;;;;;;;1.00;1.00;;;25.10;99.90;;;;;;5033547;28;20350;-69
2022/05/15 10:08:37;;;;;;;0.80;0.80;;;25.10;99.90;;;;;;5033469;28;20215;-69
2022/05/15 10:11:08;;;;;;;1.08;1.00;;;25.20;99.90;;;;;;5033572;28;20251;-69
2022/05/15 10:13:42;;;;;;;0.80;0.80;;;25.20;99.90;;;;;;5033844;28;20293;-68
2022/05/15 10:16:15;;;;;;;0.95;0.85;;;25.20;99.90;;;;;;5041704;28;20231;-68
2022/05/15 10:18:48;;;;;;;0.85;0.85;;;25.10;99.90;;;;;;5042425;28;20228;-69
2022/05/15 10:21:15;;;;;;;0.90;0.90;;;25.10;99.90;;;;;;5033410;28;20279;-68
2022/05/15 10:23:47;;;;;;;0.80;0.80;;;25.20;99.90;;;;;;5036565;28;20389;-68
2022/05/15 10:26:20;;;;;;;1.00;1.00;;;25.40;99.90;;;;;;5031132;28;20359;-69
2022/05/15 10:28:56;;;;;;;1.00;1.00;;;25.50;99.90;;;;;;5034753;28;20208;-68
2022/05/15 10:31:27;;;;;;;1.42;0.88;;;25.50;99.90;;;;;;5031656;28;20235;-68
2022/05/15 10:33:57;;;;;;;0.82;0.82;;;25.70;99.90;;;;;;5036442;28;20732;-69
2022/05/15 10:36:42;;;;;;;1.00;1.00;;;25.80;99.90;;;;;;5030903;28;20240;-68
2022/05/15 10:39:21;;;;;;;0.90;0.90;;;25.80;99.90;;;;;;5029876;28;20240;-69
2022/05/15 10:41:58;;;;;;;0.90;0.90;;;25.80;99.90;;;;;;5030814;28;20311;-68
2022/05/15 10:44:42;;;;;;;1.00;0.90;;;25.90;99.90;;;;;;5031368;28;20287;-69
2022/05/15 10:47:13;;;;;;;0.93;0.93;;;26.10;99.90;;;;;;5038520;28;20231;-70
2022/05/15 10:50:02;;;;;;;1.10;1.10;;;26.20;99.90;;;;;;5034920;28;20196;-70
2022/05/15 10:52:48;;;;;;;0.80;0.80;;;26.20;99.90;;;;;;5031708;28;20229;-68
2022/05/15 10:58:15;;;;;;;0.80;0.80;;;26.40;99.90;;;;;;5014101;28;20188;-69
2022/05/15 11:00:55;;;;;;;0.90;0.90;;;26.30;99.90;;;;;;5012296;28;20690;-69
2022/05/15 11:03:44;;;;;;;0.80;0.80;;;26.30;99.90;;;;;;5023157;28;20196;-68
2022/05/15 11:06:32;;;;;;;1.00;1.00;;;26.50;99.90;;;;;;5032119;28;20311;-69
2022/05/15 11:09:08;;;;;;;0.88;0.88;;;26.80;99.90;;;;;;5033843;28;20216;-67
2022/05/15 11:11:49;;;;;;;1.00;1.00;;;26.90;99.90;;;;;;5033153;28;20242;-68
2022/05/15 11:14:23;;;;;;;0.90;0.90;;;27.10;99.90;;;;;;5031656;28;20315;-68
2022/05/15 11:17:02;;;;;;;1.38;0.80;;;27.10;99.90;;;;;;5031201;28;20234;-70
2022/05/15 11:19:35;;;;;;;0.80;0.80;;;27.00;99.90;;;;;;5029833;28;20258;-70
2022/05/15 11:22:18;;;;;;;0.90;0.90;;;27.10;99.90;;;;;;5043417;28;20220;-69
2022/05/15 11:24:51;;;;;;;0.70;0.70;;;27.20;99.90;;;;;;5039195;28;20235;-68
2022/05/15 11:27:24;;;;;;;0.90;0.90;;;27.40;99.90;;;;;;5030049;28;20230;-69
2022/05/15 11:29:53;;;;;;;0.80;0.80;;;27.50;99.90;;;;;;5030603;28;20212;-67
2022/05/15 11:32:40;;;;;;;3.17;0.80;;;27.40;99.90;;;;;;5028333;28;20279;-70
2022/05/15 11:35:22;;;;;;;0.75;0.75;;;27.50;99.90;;;;;;5029917;28;20200;-69
2022/05/15 11:38:02;;;;;;;1.02;1.00;;;27.50;99.90;;;;;;5029368;28;20686;-69
2022/05/15 11:40:34;;;;;;;0.90;0.90;;;27.70;99.90;;;;;;5031625;28;20200;-68
2022/05/15 11:43:34;;;;;;;0.82;0.82;;;27.90;99.90;;;;;;5033481;28;20802;-68
2022/05/15 11:48:51;;;;;;;0.93;0.93;;;27.80;99.90;;;;;;5022920;28;20206;-64
2022/05/15 11:51:28;;;;;;;0.80;0.80;;;27.90;99.90;;;;;;5013683;28;20186;-64
2022/05/15 11:53:57;;;;;;;0.90;0.90;;;28.10;99.90;;;;;;5030264;28;20227;-64
2022/05/15 11:56:26;;;;;;;0.80;0.80;;;28.20;99.90;;;;;;5014700;28;20259;-65
2022/05/15 11:58:56;;;;;;;0.90;0.90;;;28.20;99.90;;;;;;5033261;28;20258;-63
2022/05/15 12:01:46;;;;;;;0.90;0.90;;;28.30;99.90;;;;;;5018991;28;20224;-67
2022/05/15 12:04:39;;;;;;;0.88;0.88;;;28.40;99.90;;;;;;5023338;28;20212;-64
2022/05/15 12:07:32;;;;;;;0.90;0.90;;;28.50;99.90;;;;;;5026338;28;20225;-64
2022/05/15 12:09:59;;;;;;;1.00;1.00;;;28.60;99.90;;;;;;5024062;28;20296;-64
2022/05/15 12:12:51;;;;;;;0.73;0.73;;;28.70;99.90;;;;;;5019481;28;20283;-65
2022/05/15 12:15:40;;;;;;;0.82;0.82;;;28.50;99.90;;;;;;5027122;28;20750;-65
2022/05/15 12:18:24;;;;;;;0.80;0.80;;;28.70;99.90;;;;;;5028908;28;20369;-64
2022/05/15 12:20:54;;;;;;;0.90;0.90;;;28.80;99.90;;;;;;5022470;28;20211;-65
2022/05/15 12:23:24;;;;;;;0.90;0.90;;;28.80;99.90;;;;;;5038147;28;20208;-64
2022/05/15 12:25:57;;;;;;;0.82;0.82;;;28.90;99.90;;;;;;5043489;28;20202;-66
2022/05/15 12:28:52;;;;;;;0.90;0.90;;;28.90;99.90;;;;;;5036369;28;20292;-64
2022/05/15 12:31:26;;;;;;;0.70;0.70;;;28.90;99.90;;;;;;5041526;28;20654;-64
2022/05/15 12:33:54;;;;;;;1.00;0.93;;;28.90;99.90;;;;;;5040302;28;20197;-64
2022/05/15 12:36:33;;;;;;;0.95;0.80;;;29.00;99.90;;;;;;5038068;28;20224;-64
2022/05/15 12:39:01;;;;;;;0.82;0.82;;;29.00;99.90;;;;;;5027572;28;20614;-64
2022/05/15 12:41:35;;;;;;;0.93;0.93;;;28.80;99.90;;;;;;5020000;28;20225;-65
2022/05/15 12:44:05;;;;;;;1.50;1.10;;;28.80;99.90;;;;;;5031819;28;20918;-64
2022/05/15 12:46:35;;;;;;;0.90;0.90;;;29.00;99.90;;;;;;5031559;28;20255;-65
2022/05/15 12:49:04;;;;;;;0.98;0.98;;;29.00;99.90;;;;;;5030474;28;20773;-64
2022/05/15 12:51:34;;;;;;;1.00;1.00;;;29.10;99.90;;;;;;5025196;28;20204;-65
2022/05/15 12:54:04;;;;;;;0.90;0.90;;;29.00;99.90;;;;;;5023932;28;20209;-65
2022/05/15 12:56:33;;;;;;;1.55;0.90;;;29.00;99.90;;;;;;5030646;28;20224;-64
2022/05/15 12:59:07;;;;;;;0.80;0.80;;;29.20;99.90;;;;;;5026033;28;20259;-66
2022/05/15 13:01:34;;;;;;;1.17;0.85;;;29.30;99.90;;;;;;5027501;28;20215;-64
2022/05/15 13:04:04;;;;;;;0.80;0.80;;;29.50;99.90;;;;;;5020624;28;20273;-65
2022/05/15 13:06:36;;;;;;;0.95;0.90;;;29.50;99.90;;;;;;5022870;28;20305;-63
2022/05/15 13:09:06;;;;;;;0.98;0.90;;;29.50;99.90;;;;;;5022341;28;20667;-65
2022/05/15 13:11:40;;;;;;;0.80;0.80;;;29.40;99.90;;;;;;5020030;28;20201;-65
2022/05/15 13:14:15;;;;;;;1.00;1.00;;;29.40;99.90;;;;;;5022429;28;20337;-64
2022/05/15 13:16:47;;;;;;;0.80;0.80;;;29.50;99.90;;;;;;5027336;28;20221;-64
2022/05/15 13:19:17;;;;;;;1.00;1.00;;;29.60;99.90;;;;;;5023574;28;20287;-65
2022/05/15 13:21:50;;;;;;;0.70;0.70;;;29.60;99.90;;;;;;5025714;28;20304;-65
2022/05/15 13:24:18;;;;;;;0.75;0.75;;;29.60;99.90;;;;;;5025446;28;20208;-64
2022/05/15 13:26:48;;;;;;;0.80;0.80;;;29.60;99.90;;;;;;5028046;28;20278;-65
2022/05/15 13:29:18;;;;;;;0.90;0.90;;;29.70;99.90;;;;;;5035875;28;20211;-64
2022/05/15 13:31:47;;;;;;;0.90;0.90;;;29.70;99.90;;;;;;5041476;28;20805;-64